createdAt,value
2023-01-28T00:02:06.832Z,100.00
2023-01-28T00:04:33.614Z,100.00
2023-01-28T00:07:01.699Z,100.00
2023-01-28T00:09:28.405Z,100.00
2023-01-28T00:11:55.230Z,100.00
2023-01-28T00:14:21.969Z,100.00
2023-01-28T00:16:48.691Z,100.00
2023-01-28T00:19:15.472Z,100.00
2023-01-28T00:21:42.284Z,100.00
2023-01-28T00:24:10.580Z,100.00
2023-01-28T00:26:37.444Z,100.00
2023-01-28T00:29:04.204Z,100.00
2023-01-28T00:31:31.224Z,100.00
2023-01-28T00:33:58.034Z,100.00
2023-01-28T00:36:26.096Z,100.00
2023-01-28T00:38:55.404Z,100.00
2023-01-28T00:41:25.929Z,100.00
2023-01-28T00:43:53.384Z,100.00
2023-01-28T00:46:21.671Z,100.00
2023-01-28T00:48:48.734Z,100.00
2023-01-28T00:51:17.479Z,100.00
2023-01-28T00:53:44.672Z,100.00
2023-01-28T00:56:14.074Z,100.00
2023-01-28T00:58:42.456Z,100.00
2023-01-28T01:01:10.644Z,100.00
2023-01-28T01:03:37.889Z,100.00
2023-01-28T01:06:05.455Z,100.00
2023-01-28T01:08:32.335Z,100.00
2023-01-28T01:10:59.112Z,100.00
2023-01-28T01:13:25.865Z,100.00
2023-01-28T01:16:01.894Z,100.00
2023-01-28T01:18:28.656Z,100.00
2023-01-28T01:20:55.394Z,100.00
2023-01-28T01:23:22.203Z,100.00
2023-01-28T01:25:48.976Z,100.00
2023-01-28T01:28:15.674Z,100.00
2023-01-28T01:30:42.450Z,100.00
2023-01-28T01:33:10.568Z,100.00
2023-01-28T01:35:37.259Z,100.00
2023-01-28T01:38:04.001Z,100.00
2023-01-28T01:40:30.806Z,100.00
2023-01-28T01:42:57.576Z,100.00
2023-01-28T01:45:24.330Z,100.00
2023-01-28T01:48:02.364Z,100.00
2023-01-28T01:50:33.709Z,100.00
2023-01-28T01:53:04.643Z,100.00
2023-01-28T01:55:36.642Z,100.00
2023-01-28T01:58:08.162Z,100.00
2023-01-28T02:00:34.989Z,100.00
2023-01-28T02:03:02.424Z,100.00
2023-01-28T02:05:30.541Z,100.00
2023-01-28T02:08:00.035Z,100.00
2023-01-28T02:10:27.037Z,100.00
2023-01-28T02:12:57.659Z,100.00
2023-01-28T02:15:25.798Z,100.00
2023-01-28T02:17:53.115Z,100.00
2023-01-28T02:20:23.201Z,100.00
2023-01-28T02:23:22.686Z,100.00
2023-01-28T02:26:23.036Z,100.00
2023-01-28T02:28:54.992Z,100.00
2023-01-28T02:31:27.336Z,100.00
2023-01-28T02:34:02.438Z,100.00
2023-01-28T02:36:38.003Z,100.00
2023-01-28T02:39:10.607Z,100.00
2023-01-28T02:41:42.626Z,100.00
2023-01-28T02:44:10.785Z,100.00
2023-01-28T02:46:38.134Z,100.00
2023-01-28T02:49:09.618Z,100.00
2023-01-28T02:52:02.693Z,100.00
2023-01-28T02:54:39.137Z,100.00
2023-01-28T02:57:17.976Z,100.00
2023-01-28T02:59:51.411Z,100.00
2023-01-28T03:02:28.093Z,100.00
2023-01-28T03:05:03.210Z,100.00
2023-01-28T03:07:34.458Z,100.00
2023-01-28T03:10:04.451Z,100.00
2023-01-28T03:12:32.382Z,100.00
2023-01-28T03:15:03.965Z,100.00
2023-01-28T03:17:36.412Z,100.00
2023-01-28T03:20:03.804Z,100.00
2023-01-28T03:22:34.431Z,100.00
2023-01-28T03:25:02.478Z,100.00
2023-01-28T03:27:36.871Z,100.00
2023-01-28T03:30:09.724Z,100.00
2023-01-28T03:32:38.281Z,100.00
2023-01-28T03:35:07.650Z,100.00
2023-01-28T03:37:34.917Z,100.00
2023-01-28T03:40:03.099Z,100.00
2023-01-28T03:42:32.346Z,100.00
2023-01-28T03:44:59.428Z,100.00
2023-01-28T03:47:29.289Z,100.00
2023-01-28T03:49:57.682Z,100.00
2023-01-28T03:52:26.889Z,100.00
2023-01-28T03:54:53.709Z,100.00
2023-01-28T03:57:22.270Z,100.00
2023-01-28T03:59:49.268Z,100.00
2023-01-28T04:02:16.909Z,100.00
2023-01-28T04:04:45.617Z,100.00
2023-01-28T04:07:13.776Z,100.00
2023-01-28T04:09:40.496Z,100.00
2023-01-28T04:12:07.532Z,100.00
2023-01-28T04:14:34.273Z,100.00
2023-01-28T04:17:01.267Z,100.00
2023-01-28T04:19:28.267Z,100.00
2023-01-28T04:21:56.393Z,100.00
2023-01-28T04:24:23.616Z,100.00
2023-01-28T04:26:50.494Z,100.00
2023-01-28T04:29:17.259Z,100.00
2023-01-28T04:31:44.178Z,100.00
2023-01-28T04:34:11.053Z,100.00
2023-01-28T04:36:37.783Z,100.00
2023-01-28T04:39:05.929Z,100.00
2023-01-28T04:41:32.693Z,100.00
2023-01-28T04:43:59.514Z,100.00
2023-01-28T04:46:26.290Z,100.00
2023-01-28T04:48:53.100Z,100.00
2023-01-28T04:51:19.835Z,100.00
2023-01-28T04:53:46.561Z,100.00
2023-01-28T04:56:14.682Z,100.00
2023-01-28T04:58:41.536Z,100.00
2023-01-28T05:01:08.447Z,100.00
2023-01-28T05:03:36.395Z,100.00
2023-01-28T05:06:03.510Z,100.00
2023-01-28T05:08:30.467Z,100.00
2023-01-28T05:10:57.191Z,100.00
2023-01-28T05:13:25.402Z,100.00
2023-01-28T05:15:52.775Z,100.00
2023-01-28T05:18:19.586Z,100.00
2023-01-28T05:20:46.360Z,100.00
2023-01-28T05:23:13.086Z,100.00
2023-01-28T05:25:39.860Z,100.00
2023-01-28T05:28:06.583Z,100.00
2023-01-28T05:30:34.774Z,100.00
2023-01-28T05:33:01.590Z,100.00
2023-01-28T05:35:28.370Z,100.00
2023-01-28T05:37:55.127Z,100.00
2023-01-28T05:40:21.978Z,100.00
2023-01-28T05:42:48.733Z,100.00
2023-01-28T05:45:15.762Z,100.00
2023-01-28T05:47:45.740Z,100.00
2023-01-28T05:50:14.671Z,100.00
2023-01-28T05:52:41.800Z,100.00
2023-01-28T05:55:09.564Z,100.00
2023-01-28T05:57:36.431Z,100.00
2023-01-28T06:00:04.669Z,100.00
2023-01-28T06:02:31.516Z,100.00
2023-01-28T06:04:59.766Z,100.00
2023-01-28T06:07:26.600Z,100.00
2023-01-28T06:09:53.345Z,100.00
2023-01-28T06:12:20.103Z,100.00
2023-01-28T06:14:46.937Z,100.00
2023-01-28T06:17:13.715Z,100.00
2023-01-28T06:19:40.537Z,100.00
2023-01-28T06:22:08.815Z,100.00
2023-01-28T06:24:35.857Z,100.00
2023-01-28T06:27:02.630Z,100.00
2023-01-28T06:29:29.459Z,100.00
2023-01-28T06:31:56.321Z,100.00
2023-01-28T06:34:23.106Z,100.00
2023-01-28T06:36:50.005Z,100.00
2023-01-28T06:39:18.160Z,100.00
2023-01-28T06:41:44.961Z,100.00
2023-01-28T06:44:11.853Z,100.00
2023-01-28T06:46:38.626Z,100.00
2023-01-28T06:49:05.408Z,100.00
2023-01-28T06:51:32.728Z,100.00
2023-01-28T06:53:59.462Z,100.00
2023-01-28T06:56:27.626Z,100.00
2023-01-28T06:58:54.393Z,100.00
2023-01-28T07:01:21.153Z,100.00
2023-01-28T07:03:47.927Z,100.00
2023-01-28T07:06:14.683Z,100.00
2023-01-28T07:08:41.399Z,100.00
2023-01-28T07:11:08.459Z,100.00
2023-01-28T07:13:36.651Z,100.00
2023-01-28T07:16:03.599Z,100.00
2023-01-28T07:18:30.324Z,100.00
2023-01-28T07:20:57.949Z,100.00
2023-01-28T07:23:25.006Z,100.00
2023-01-28T07:25:51.824Z,100.00
2023-01-28T07:28:18.873Z,100.00
2023-01-28T07:30:47.974Z,100.00
2023-01-28T07:33:14.727Z,100.00
2023-01-28T07:35:41.538Z,100.00
2023-01-28T07:38:08.382Z,100.00
2023-01-28T07:40:35.176Z,100.00
2023-01-28T07:43:02.122Z,100.00
2023-01-28T07:45:28.954Z,100.00
2023-01-28T07:47:58.532Z,100.00
2023-01-28T07:50:26.240Z,100.00
2023-01-28T07:52:53.076Z,100.00
2023-01-28T07:55:19.946Z,100.00
2023-01-28T07:57:51.101Z,100.00
2023-01-28T08:00:18.855Z,100.00
2023-01-28T08:02:45.768Z,100.00
2023-01-28T08:05:17.104Z,100.00
2023-01-28T08:07:44.519Z,100.00
2023-01-28T08:10:12.146Z,100.00
2023-01-28T08:12:39.399Z,100.00
2023-01-28T08:15:07.451Z,100.00
2023-01-28T08:17:34.376Z,100.00
2023-01-28T08:20:01.055Z,100.00
2023-01-28T08:22:29.299Z,100.00
2023-01-28T08:24:56.140Z,100.00
2023-01-28T08:27:23.034Z,100.00
2023-01-28T08:29:49.802Z,100.00
2023-01-28T08:32:16.541Z,100.00
2023-01-28T08:34:43.312Z,100.00
2023-01-28T08:37:10.124Z,100.00
2023-01-28T08:39:38.495Z,100.00
2023-01-28T08:42:06.057Z,100.00
2023-01-28T08:44:33.329Z,100.00
2023-01-28T08:47:00.212Z,100.00
2023-01-28T08:49:26.989Z,100.00
2023-01-28T08:51:53.781Z,100.00
2023-01-28T08:54:20.718Z,100.00
2023-01-28T08:56:48.915Z,100.00
2023-01-28T08:59:15.767Z,100.00
2023-01-28T09:01:42.607Z,100.00
2023-01-28T09:04:09.568Z,100.00
2023-01-28T09:06:36.559Z,100.00
2023-01-28T09:09:03.555Z,100.00
2023-01-28T09:11:30.327Z,100.00
2023-01-28T09:13:58.697Z,100.00
2023-01-28T09:16:25.623Z,100.00
2023-01-28T09:18:52.433Z,100.00
2023-01-28T09:21:19.213Z,100.00
2023-01-28T09:23:46.038Z,100.00
2023-01-28T09:26:12.913Z,100.00
2023-01-28T09:28:39.785Z,100.00
2023-01-28T09:31:09.903Z,100.00
2023-01-28T09:33:39.175Z,100.00
2023-01-28T09:36:08.733Z,100.00
2023-01-28T09:38:35.611Z,100.00
2023-01-28T09:41:10.774Z,100.00
2023-01-28T09:44:00.196Z,100.00
2023-01-28T09:46:32.610Z,100.00
2023-01-28T09:49:02.836Z,100.00
2023-01-28T09:51:34.248Z,100.00
2023-01-28T09:54:05.850Z,100.00
2023-01-28T09:56:38.984Z,100.00
2023-01-28T09:59:17.365Z,100.00
2023-01-28T10:01:50.319Z,100.00
2023-01-28T10:04:31.258Z,100.00
2023-01-28T10:07:13.531Z,100.00
2023-01-28T10:09:48.907Z,100.00
2023-01-28T10:12:38.016Z,100.00
2023-01-28T10:15:24.171Z,100.00
2023-01-28T10:18:10.954Z,100.00
2023-01-28T10:20:49.046Z,99.21
2023-01-28T10:23:23.745Z,98.37
2023-01-28T10:25:53.527Z,97.12
2023-01-28T10:28:23.710Z,96.87
2023-01-28T10:30:51.121Z,94.89
2023-01-28T10:33:24.838Z,93.61
2023-01-28T10:35:51.690Z,89.95
2023-01-28T10:38:21.698Z,88.60
2023-01-28T10:40:49.159Z,87.44
2023-01-28T10:43:18.913Z,87.59
2023-01-28T10:45:55.406Z,86.82
2023-01-28T10:48:26.171Z,86.50
2023-01-28T10:50:54.472Z,84.81
2023-01-28T10:53:34.200Z,83.71
2023-01-28T10:56:03.232Z,84.50
2023-01-28T10:58:33.797Z,82.90
2023-01-28T11:01:02.784Z,81.63
2023-01-28T11:03:31.541Z,80.77
2023-01-28T11:05:59.258Z,79.53
2023-01-28T11:08:28.875Z,79.40
2023-01-28T11:10:56.586Z,78.35
2023-01-28T11:13:26.029Z,77.13
2023-01-28T11:15:54.726Z,77.38
2023-01-28T11:18:25.117Z,78.19
2023-01-28T11:20:56.439Z,77.61
2023-01-28T11:23:26.284Z,78.96
2023-01-28T11:26:02.870Z,75.77
2023-01-28T11:28:31.332Z,77.41
2023-01-28T11:31:02.016Z,78.65
2023-01-28T11:33:33.577Z,79.50
2023-01-28T11:36:09.035Z,80.52
2023-01-28T11:38:35.805Z,81.79
2023-01-28T11:41:02.882Z,81.77
2023-01-28T11:43:31.460Z,80.72
2023-01-28T11:46:13.025Z,80.61
2023-01-28T11:48:48.339Z,79.92
2023-01-28T11:51:29.543Z,79.32
2023-01-28T11:54:13.005Z,78.62
2023-01-28T11:56:53.682Z,78.83
2023-01-28T11:59:36.413Z,79.07
2023-01-28T12:02:15.540Z,78.75
2023-01-28T12:05:00.910Z,76.82
2023-01-28T12:07:40.312Z,75.00
2023-01-28T12:10:18.764Z,74.57
2023-01-28T12:13:03.233Z,72.77
2023-01-28T12:16:01.038Z,72.21
2023-01-28T12:18:43.761Z,70.95
2023-01-28T12:21:17.875Z,73.23
2023-01-28T12:24:00.671Z,72.99
2023-01-28T12:26:40.035Z,72.42
2023-01-28T12:29:21.171Z,71.06
2023-01-28T12:32:02.137Z,71.16
2023-01-28T12:35:00.410Z,67.88
2023-01-28T12:37:40.832Z,67.76
2023-01-28T12:40:20.634Z,68.58
2023-01-28T12:42:53.893Z,68.61
2023-01-28T12:45:25.143Z,69.95
2023-01-28T12:47:55.880Z,69.67
2023-01-28T12:50:27.470Z,70.05
2023-01-28T12:53:01.358Z,70.00
2023-01-28T12:55:41.344Z,71.66
2023-01-28T12:58:17.303Z,69.23
2023-01-28T13:00:50.131Z,70.56
2023-01-28T13:03:21.377Z,71.40
2023-01-28T13:05:51.974Z,73.17
2023-01-28T13:08:24.216Z,72.75
2023-01-28T13:10:57.962Z,72.64
2023-01-28T13:13:31.368Z,72.68
2023-01-28T13:16:00.199Z,70.95
2023-01-28T13:18:42.500Z,72.38
2023-01-28T13:21:15.217Z,74.58
2023-01-28T13:23:44.107Z,75.26
2023-01-28T13:26:29.335Z,75.14
2023-01-28T13:29:09.024Z,76.52
2023-01-28T13:31:41.047Z,76.36
2023-01-28T13:34:10.146Z,76.57
2023-01-28T13:36:43.848Z,76.91
2023-01-28T13:39:18.625Z,76.45
2023-01-28T13:41:48.493Z,76.65
2023-01-28T13:44:27.929Z,77.97
2023-01-28T13:46:56.697Z,78.36
2023-01-28T13:49:29.904Z,76.88
2023-01-28T13:52:06.274Z,76.15
2023-01-28T13:54:36.587Z,74.56
2023-01-28T13:57:29.168Z,73.01
2023-01-28T14:00:07.889Z,73.94
2023-01-28T14:03:03.282Z,75.87
2023-01-28T14:06:03.876Z,75.86
2023-01-28T14:08:56.536Z,75.86
2023-01-28T14:11:51.080Z,76.00
2023-01-28T14:14:53.467Z,76.27
2023-01-28T14:17:30.723Z,76.42
2023-01-28T14:19:58.592Z,77.50
2023-01-28T14:22:26.650Z,78.53
2023-01-28T14:24:54.017Z,79.80
2023-01-28T14:27:26.658Z,79.71
2023-01-28T14:30:07.855Z,79.78
2023-01-28T14:32:35.227Z,79.29
2023-01-28T14:35:09.392Z,80.06
2023-01-28T14:37:36.009Z,81.25
2023-01-28T14:40:06.794Z,83.21
2023-01-28T14:42:38.892Z,82.94
2023-01-28T14:45:19.644Z,83.50
2023-01-28T14:48:04.317Z,83.37
2023-01-28T14:50:46.330Z,84.36
2023-01-28T14:53:39.750Z,85.54
2023-01-28T14:56:20.314Z,86.56
2023-01-28T14:58:50.359Z,86.05
2023-01-28T15:01:23.244Z,88.84
2023-01-28T15:03:50.382Z,88.97
2023-01-28T15:06:19.145Z,89.67
2023-01-28T15:08:45.984Z,89.77
2023-01-28T15:11:16.169Z,90.02
2023-01-28T15:13:46.292Z,90.73
2023-01-28T15:16:19.088Z,91.07
2023-01-28T15:18:48.024Z,92.03
2023-01-28T15:21:19.998Z,92.37
2023-01-28T15:23:50.387Z,92.60
2023-01-28T15:26:20.173Z,92.62
2023-01-28T15:28:48.391Z,93.36
2023-01-28T15:31:23.715Z,93.32
2023-01-28T15:33:59.404Z,92.85
2023-01-28T15:36:26.914Z,94.29
2023-01-28T15:38:54.229Z,94.42
2023-01-28T15:41:24.257Z,94.11
2023-01-28T15:43:54.308Z,95.69
2023-01-28T15:46:22.086Z,97.62
2023-01-28T15:48:55.687Z,98.14
2023-01-28T15:51:26.358Z,97.12
2023-01-28T15:53:57.790Z,98.28
2023-01-28T15:56:27.147Z,99.12
2023-01-28T15:58:54.395Z,99.48
2023-01-28T16:01:21.671Z,100.00
2023-01-28T16:04:01.557Z,100.00
2023-01-28T16:06:35.648Z,100.00
2023-01-28T16:09:04.123Z,100.00
2023-01-28T16:11:33.477Z,100.00
2023-01-28T16:14:01.161Z,100.00
2023-01-28T16:16:32.038Z,100.00
2023-01-28T16:18:59.391Z,100.00
2023-01-28T16:21:29.456Z,100.00
2023-01-28T16:24:02.595Z,100.00
2023-01-28T16:26:31.371Z,100.00
2023-01-28T16:28:58.896Z,100.00
2023-01-28T16:31:25.814Z,100.00
2023-01-28T16:33:53.035Z,100.00
2023-01-28T16:36:19.848Z,100.00
2023-01-28T16:38:46.941Z,100.00
2023-01-28T16:41:23.838Z,100.00
2023-01-28T16:43:50.757Z,100.00
2023-01-28T16:46:17.503Z,100.00
2023-01-28T16:48:44.644Z,100.00
2023-01-28T16:51:15.923Z,100.00
2023-01-28T16:53:43.299Z,100.00
2023-01-28T16:56:36.048Z,100.00
2023-01-28T16:59:02.927Z,100.00
2023-01-28T17:01:29.812Z,100.00
2023-01-28T17:03:56.765Z,100.00
2023-01-28T17:06:23.593Z,100.00
2023-01-28T17:08:50.396Z,100.00
2023-01-28T17:11:18.523Z,100.00
2023-01-28T17:13:45.360Z,100.00
2023-01-28T17:16:12.097Z,100.00
2023-01-28T17:18:42.621Z,100.00
2023-01-28T17:21:10.957Z,100.00
2023-01-28T17:23:37.766Z,100.00
2023-01-28T17:26:05.522Z,100.00
2023-01-28T17:28:34.179Z,100.00
2023-01-28T17:31:05.729Z,100.00
2023-01-28T17:33:32.615Z,100.00
2023-01-28T17:36:00.634Z,100.00
2023-01-28T17:38:27.404Z,100.00
2023-01-28T17:40:54.296Z,100.00
2023-01-28T17:43:21.084Z,100.00
2023-01-28T17:45:49.218Z,100.00
2023-01-28T17:48:15.992Z,100.00
2023-01-28T17:50:42.912Z,100.00
2023-01-28T17:53:10.632Z,100.00
2023-01-28T17:55:37.460Z,100.00
2023-01-28T17:58:04.629Z,100.00
2023-01-28T18:00:32.049Z,100.00
2023-01-28T18:03:00.270Z,100.00
2023-01-28T18:05:27.043Z,100.00
2023-01-28T18:07:53.875Z,100.00
2023-01-28T18:10:20.643Z,100.00
2023-01-28T18:12:47.395Z,100.00
2023-01-28T18:15:14.592Z,100.00
2023-01-28T18:17:41.641Z,100.00
2023-01-28T18:20:11.096Z,100.00
2023-01-28T18:22:37.953Z,100.00
2023-01-28T18:25:05.471Z,100.00
2023-01-28T18:27:32.245Z,100.00
2023-01-28T18:29:59.025Z,100.00
2023-01-28T18:32:25.837Z,100.00
2023-01-28T18:34:52.691Z,100.00
2023-01-28T18:37:20.773Z,100.00
2023-01-28T18:39:47.564Z,100.00
2023-01-28T18:42:14.298Z,100.00
2023-01-28T18:44:41.043Z,100.00
2023-01-28T18:47:07.805Z,100.00
2023-01-28T18:49:34.537Z,100.00
2023-01-28T18:52:01.247Z,100.00
2023-01-28T18:54:29.392Z,100.00
2023-01-28T18:56:56.095Z,100.00
2023-01-28T18:59:23.001Z,100.00
2023-01-28T19:01:49.786Z,100.00
2023-01-28T19:04:16.815Z,100.00
2023-01-28T19:06:43.567Z,100.00
2023-01-28T19:09:12.153Z,100.00
2023-01-28T19:11:40.776Z,100.00
2023-01-28T19:14:08.099Z,100.00
2023-01-28T19:16:34.950Z,100.00
2023-01-28T19:19:01.924Z,100.00
2023-01-28T19:21:29.971Z,100.00
2023-01-28T19:23:58.212Z,100.00
2023-01-28T19:26:26.321Z,100.00
2023-01-28T19:28:54.530Z,100.00
2023-01-28T19:31:22.494Z,100.00
2023-01-28T19:33:52.924Z,100.00
2023-01-28T19:36:19.679Z,100.00
2023-01-28T19:38:46.433Z,100.00
2023-01-28T19:41:13.371Z,100.00
2023-01-28T19:43:40.158Z,100.00
2023-01-28T19:46:12.820Z,100.00
2023-01-28T19:48:39.688Z,100.00
2023-01-28T19:51:06.811Z,100.00
2023-01-28T19:53:34.060Z,100.00
2023-01-28T19:56:01.637Z,100.00
2023-01-28T19:58:28.559Z,100.00
2023-01-28T20:00:55.595Z,100.00
2023-01-28T20:03:23.716Z,100.00
2023-01-28T20:05:50.501Z,100.00
2023-01-28T20:08:17.266Z,100.00
2023-01-28T20:10:44.100Z,100.00
2023-01-28T20:13:10.812Z,100.00
2023-01-28T20:15:39.945Z,100.00
2023-01-28T20:18:06.761Z,100.00
2023-01-28T20:20:34.918Z,100.00
2023-01-28T20:23:01.644Z,100.00
2023-01-28T20:25:28.477Z,100.00
2023-01-28T20:27:55.265Z,100.00
2023-01-28T20:30:22.064Z,100.00
2023-01-28T20:32:48.852Z,100.00
2023-01-28T20:35:16.055Z,100.00
2023-01-28T20:37:44.451Z,100.00
2023-01-28T20:40:12.520Z,100.00
2023-01-28T20:42:39.284Z,100.00
2023-01-28T20:45:07.304Z,100.00
2023-01-28T20:47:34.103Z,100.00
2023-01-28T20:50:00.812Z,100.00
2023-01-28T20:52:27.566Z,100.00
2023-01-28T20:54:55.709Z,100.00
2023-01-28T20:57:22.462Z,100.00
2023-01-28T20:59:49.228Z,100.00
2023-01-28T21:02:15.972Z,100.00
2023-01-28T21:04:42.708Z,100.00
2023-01-28T21:07:09.481Z,100.00
2023-01-28T21:09:36.274Z,100.00
2023-01-28T21:12:04.882Z,100.00
2023-01-28T21:14:31.668Z,100.00
2023-01-28T21:16:58.490Z,100.00
2023-01-28T21:19:25.318Z,100.00
2023-01-28T21:21:52.055Z,100.00
2023-01-28T21:24:18.836Z,100.00
2023-01-28T21:26:45.754Z,100.00
2023-01-28T21:29:14.123Z,100.00
2023-01-28T21:31:40.878Z,100.00
2023-01-28T21:34:07.708Z,100.00
2023-01-28T21:36:34.523Z,100.00
2023-01-28T21:39:01.437Z,100.00
2023-01-28T21:41:28.371Z,100.00
2023-01-28T21:43:55.931Z,100.00
2023-01-28T21:46:26.003Z,100.00
2023-01-28T21:48:54.233Z,100.00
2023-01-28T21:51:21.052Z,100.00
2023-01-28T21:53:47.860Z,100.00
2023-01-28T21:56:15.874Z,100.00
2023-01-28T21:58:42.675Z,100.00
2023-01-28T22:01:10.176Z,100.00
2023-01-28T22:03:38.346Z,100.00
2023-01-28T22:06:05.645Z,100.00
2023-01-28T22:08:32.559Z,100.00
2023-01-28T22:11:02.105Z,100.00
2023-01-28T22:13:29.403Z,100.00
2023-01-28T22:15:56.233Z,100.00
2023-01-28T22:18:23.106Z,100.00
2023-01-28T22:20:57.651Z,100.00
2023-01-28T22:23:24.482Z,100.00
2023-01-28T22:25:51.233Z,100.00
2023-01-28T22:28:17.971Z,100.00
2023-01-28T22:30:44.926Z,100.00
2023-01-28T22:33:11.820Z,100.00
2023-01-28T22:35:38.580Z,100.00
2023-01-28T22:38:06.700Z,100.00
2023-01-28T22:40:34.767Z,100.00
2023-01-28T22:43:01.619Z,100.00
2023-01-28T22:45:28.367Z,100.00
2023-01-28T22:47:55.215Z,100.00
2023-01-28T22:50:21.966Z,100.00
2023-01-28T22:52:49.281Z,100.00
2023-01-28T22:55:17.475Z,100.00
2023-01-28T22:57:44.277Z,100.00
2023-01-28T23:00:13.726Z,100.00
2023-01-28T23:02:40.659Z,100.00
2023-01-28T23:05:08.091Z,100.00
2023-01-28T23:07:34.810Z,100.00
2023-01-28T23:10:01.825Z,100.00
2023-01-28T23:12:30.059Z,100.00
2023-01-28T23:14:56.811Z,100.00
2023-01-28T23:17:23.669Z,100.00
2023-01-28T23:19:50.542Z,100.00
2023-01-28T23:22:23.018Z,100.00
2023-01-28T23:24:49.953Z,100.00
2023-01-28T23:27:16.645Z,100.00
2023-01-28T23:29:44.807Z,100.00
2023-01-28T23:32:11.660Z,100.00
2023-01-28T23:34:40.582Z,100.00
2023-01-28T23:37:08.956Z,100.00
2023-01-28T23:39:35.768Z,100.00
2023-01-28T23:42:09.390Z,100.00
2023-01-28T23:44:36.147Z,100.00
2023-01-28T23:47:04.353Z,100.00
2023-01-28T23:49:31.135Z,100.00
2023-01-28T23:51:57.935Z,100.00
2023-01-28T23:54:24.665Z,100.00
2023-01-28T23:56:51.399Z,100.00
2023-01-28T23:59:18.200Z,100.00
